sensor_id;sensor_type;location;lat;lon;timestamp;pressure;altitude;pressure_sealevel;temperature;humidity
77086;BME280;66014;53.134;18.006;2022-12-13T00:00:18;100180.41;;;0.01;75.31
77086;BME280;66014;53.134;18.006;2022-12-13T00:03:06;100185.19;;;-0.01;75.05
77086;BME280;66014;53.134;18.006;2022-12-13T00:05:33;100183.97;;;-0.03;75.38
77086;BME280;66014;53.134;18.006;2022-12-13T00:08:00;100187.36;;;-0.03;75.24
77086;BME280;66014;53.134;18.006;2022-12-13T00:10:27;100185.50;;;-0.04;75.27
77086;BME280;66014;53.134;18.006;2022-12-13T00:12:53;100184.08;;;-0.06;75.20
77086;BME280;66014;53.134;18.006;2022-12-13T00:15:20;100188.13;;;-0.06;75.14
77086;BME280;66014;53.134;18.006;2022-12-13T00:17:46;100188.12;;;-0.04;75.27
77086;BME280;66014;53.134;18.006;2022-12-13T00:20:13;100191.03;;;-0.06;75.30
77086;BME280;66014;53.134;18.006;2022-12-13T00:22:39;100192.26;;;-0.08;75.00
77086;BME280;66014;53.134;18.006;2022-12-13T00:25:06;100199.25;;;-0.10;75.06
77086;BME280;66014;53.134;18.006;2022-12-13T00:27:33;100206.15;;;-0.14;74.97
77086;BME280;66014;53.134;18.006;2022-12-13T00:29:59;100204.35;;;-0.15;75.01
77086;BME280;66014;53.134;18.006;2022-12-13T00:32:26;100208.52;;;-0.15;74.71
77086;BME280;66014;53.134;18.006;2022-12-13T00:34:52;100211.66;;;-0.15;74.43
77086;BME280;66014;53.134;18.006;2022-12-13T00:37:19;100214.22;;;-0.17;74.45
77086;BME280;66014;53.134;18.006;2022-12-13T00:39:45;100218.02;;;-0.18;74.37
77086;BME280;66014;53.134;18.006;2022-12-13T00:42:12;100220.44;;;-0.22;74.43
77086;BME280;66014;53.134;18.006;2022-12-13T00:44:38;100222.84;;;-0.26;74.22
77086;BME280;66014;53.134;18.006;2022-12-13T00:47:05;100224.57;;;-0.26;74.37
77086;BME280;66014;53.134;18.006;2022-12-13T00:49:31;100224.09;;;-0.27;74.16
77086;BME280;66014;53.134;18.006;2022-12-13T00:51:58;100226.67;;;-0.29;74.17
77086;BME280;66014;53.134;18.006;2022-12-13T00:54:25;100224.77;;;-0.31;73.99
77086;BME280;66014;53.134;18.006;2022-12-13T00:56:52;100231.20;;;-0.35;73.97
77086;BME280;66014;53.134;18.006;2022-12-13T00:59:18;100229.98;;;-0.39;74.14
77086;BME280;66014;53.134;18.006;2022-12-13T01:01:46;100226.48;;;-0.39;74.02
77086;BME280;66014;53.134;18.006;2022-12-13T01:04:14;100226.65;;;-0.39;73.99
77086;BME280;66014;53.134;18.006;2022-12-13T01:06:44;100222.92;;;-0.43;73.87
77086;BME280;66014;53.134;18.006;2022-12-13T01:09:20;100224.94;;;-0.46;74.06
77086;BME280;66014;53.134;18.006;2022-12-13T01:11:48;100219.94;;;-0.51;74.13
77086;BME280;66014;53.134;18.006;2022-12-13T01:14:16;100215.82;;;-0.52;74.10
77086;BME280;66014;53.134;18.006;2022-12-13T01:16:43;100216.08;;;-0.49;73.97
77086;BME280;66014;53.134;18.006;2022-12-13T01:19:10;100217.12;;;-0.49;74.02
77086;BME280;66014;53.134;18.006;2022-12-13T01:21:36;100216.09;;;-0.49;73.98
77086;BME280;66014;53.134;18.006;2022-12-13T01:24:04;100217.22;;;-0.50;73.99
77086;BME280;66014;53.134;18.006;2022-12-13T01:26:33;100217.29;;;-0.51;74.00
77086;BME280;66014;53.134;18.006;2022-12-13T01:28:59;100215.60;;;-0.51;74.08
77086;BME280;66014;53.134;18.006;2022-12-13T01:31:26;100213.67;;;-0.51;73.93
77086;BME280;66014;53.134;18.006;2022-12-13T01:33:52;100217.29;;;-0.53;74.02
77086;BME280;66014;53.134;18.006;2022-12-13T01:36:20;100218.90;;;-0.56;74.00
77086;BME280;66014;53.134;18.006;2022-12-13T01:38:47;100215.16;;;-0.59;74.18
77086;BME280;66014;53.134;18.006;2022-12-13T01:41:17;100213.85;;;-0.63;74.22
77086;BME280;66014;53.134;18.006;2022-12-13T01:46:16;100209.24;;;-0.66;73.90
77086;BME280;66014;53.134;18.006;2022-12-13T01:48:54;100214.33;;;-0.66;73.97
77086;BME280;66014;53.134;18.006;2022-12-13T01:51:36;100217.15;;;-0.71;74.07
77086;BME280;66014;53.134;18.006;2022-12-13T01:54:08;100218.63;;;-0.77;74.20
77086;BME280;66014;53.134;18.006;2022-12-13T01:56:42;100223.07;;;-0.82;74.21
77086;BME280;66014;53.134;18.006;2022-12-13T01:59:11;100230.94;;;-0.88;74.24
77086;BME280;66014;53.134;18.006;2022-12-13T02:01:38;100227.10;;;-0.92;74.15
77086;BME280;66014;53.134;18.006;2022-12-13T02:04:06;100231.96;;;-0.94;74.24
77086;BME280;66014;53.134;18.006;2022-12-13T02:12:10;100242.11;;;-1.04;74.33
77086;BME280;66014;53.134;18.006;2022-12-13T02:14:38;100238.48;;;-1.09;74.50
77086;BME280;66014;53.134;18.006;2022-12-13T02:17:20;100240.86;;;-1.13;74.68
77086;BME280;66014;53.134;18.006;2022-12-13T02:22:59;100237.64;;;-1.07;74.41
77086;BME280;66014;53.134;18.006;2022-12-13T02:25:59;100235.58;;;-1.03;74.23
77086;BME280;66014;53.134;18.006;2022-12-13T02:34:12;100234.84;;;-1.02;73.81
77086;BME280;66014;53.134;18.006;2022-12-13T02:39:32;100236.77;;;-0.98;73.27
77086;BME280;66014;53.134;18.006;2022-12-13T02:42:11;100235.05;;;-1.00;73.07
77086;BME280;66014;53.134;18.006;2022-12-13T02:45:04;100234.72;;;-1.03;72.91
77086;BME280;66014;53.134;18.006;2022-12-13T02:47:37;100237.73;;;-1.08;72.68
77086;BME280;66014;53.134;18.006;2022-12-13T02:50:06;100240.48;;;-1.12;72.75
77086;BME280;66014;53.134;18.006;2022-12-13T02:52:33;100244.84;;;-1.15;72.74
77086;BME280;66014;53.134;18.006;2022-12-13T02:55:06;100249.20;;;-1.14;72.64
77086;BME280;66014;53.134;18.006;2022-12-13T02:57:36;100248.48;;;-1.17;72.44
77086;BME280;66014;53.134;18.006;2022-12-13T03:00:07;100251.87;;;-1.20;72.56
77086;BME280;66014;53.134;18.006;2022-12-13T03:11:24;100253.91;;;-1.43;72.92
77086;BME280;66014;53.134;18.006;2022-12-13T03:13:56;100253.95;;;-1.46;73.06
77086;BME280;66014;53.134;18.006;2022-12-13T03:16:39;100252.27;;;-1.49;73.05
77086;BME280;66014;53.134;18.006;2022-12-13T03:19:08;100255.14;;;-1.52;73.17
77086;BME280;66014;53.134;18.006;2022-12-13T03:21:47;100250.00;;;-1.58;73.27
77086;BME280;66014;53.134;18.006;2022-12-13T03:24:19;100249.75;;;-1.62;73.38
77086;BME280;66014;53.134;18.006;2022-12-13T03:26:47;100251.45;;;-1.66;73.57
77086;BME280;66014;53.134;18.006;2022-12-13T03:29:15;100256.38;;;-1.69;73.70
77086;BME280;66014;53.134;18.006;2022-12-13T03:31:41;100256.77;;;-1.68;73.73
77086;BME280;66014;53.134;18.006;2022-12-13T03:34:08;100259.47;;;-1.66;73.67
77086;BME280;66014;53.134;18.006;2022-12-13T03:36:34;100252.77;;;-1.68;73.58
77086;BME280;66014;53.134;18.006;2022-12-13T03:39:01;100256.09;;;-1.70;73.57
77086;BME280;66014;53.134;18.006;2022-12-13T03:41:28;100254.28;;;-1.74;73.58
77086;BME280;66014;53.134;18.006;2022-12-13T03:43:59;100251.60;;;-1.78;73.63
77086;BME280;66014;53.134;18.006;2022-12-13T03:46:28;100252.11;;;-1.82;73.67
77086;BME280;66014;53.134;18.006;2022-12-13T03:48:54;100256.84;;;-1.85;73.69
77086;BME280;66014;53.134;18.006;2022-12-13T03:51:21;100255.52;;;-1.86;73.75
77086;BME280;66014;53.134;18.006;2022-12-13T03:53:47;100263.41;;;-1.85;73.78
77086;BME280;66014;53.134;18.006;2022-12-13T03:56:14;100261.71;;;-1.88;73.80
77086;BME280;66014;53.134;18.006;2022-12-13T03:58:40;100261.98;;;-1.91;73.84
77086;BME280;66014;53.134;18.006;2022-12-13T04:01:10;100262.09;;;-1.95;73.95
77086;BME280;66014;53.134;18.006;2022-12-13T04:03:37;100264.89;;;-1.98;73.92
77086;BME280;66014;53.134;18.006;2022-12-13T04:06:05;100262.34;;;-1.99;74.03
77086;BME280;66014;53.134;18.006;2022-12-13T04:08:32;100261.13;;;-1.96;73.97
77086;BME280;66014;53.134;18.006;2022-12-13T04:10:58;100259.29;;;-1.92;73.93
77086;BME280;66014;53.134;18.006;2022-12-13T04:13:25;100254.92;;;-1.92;73.78
77086;BME280;66014;53.134;18.006;2022-12-13T04:15:58;100254.25;;;-1.93;73.64
77086;BME280;66014;53.134;18.006;2022-12-13T04:18:24;100257.64;;;-1.94;73.76
77086;BME280;66014;53.134;18.006;2022-12-13T04:20:51;100258.39;;;-1.95;73.76
77086;BME280;66014;53.134;18.006;2022-12-13T04:23:18;100260.23;;;-1.96;73.69
77086;BME280;66014;53.134;18.006;2022-12-13T04:25:44;100257.11;;;-1.96;73.60
77086;BME280;66014;53.134;18.006;2022-12-13T04:28:11;100259.05;;;-1.94;73.65
77086;BME280;66014;53.134;18.006;2022-12-13T04:30:38;100260.02;;;-1.93;73.65
77086;BME280;66014;53.134;18.006;2022-12-13T04:33:05;100256.66;;;-1.92;73.66
77086;BME280;66014;53.134;18.006;2022-12-13T04:35:31;100259.63;;;-1.92;73.58
77086;BME280;66014;53.134;18.006;2022-12-13T04:37:57;100264.06;;;-1.94;73.63
77086;BME280;66014;53.134;18.006;2022-12-13T04:40:24;100265.33;;;-1.94;73.74
77086;BME280;66014;53.134;18.006;2022-12-13T04:42:50;100269.02;;;-1.93;73.60
77086;BME280;66014;53.134;18.006;2022-12-13T04:45:17;100270.77;;;-1.90;73.60
77086;BME280;66014;53.134;18.006;2022-12-13T04:47:44;100270.19;;;-1.89;73.68
77086;BME280;66014;53.134;18.006;2022-12-13T04:50:10;100273.96;;;-1.89;73.66
77086;BME280;66014;53.134;18.006;2022-12-13T04:52:37;100272.96;;;-1.89;73.76
77086;BME280;66014;53.134;18.006;2022-12-13T04:55:07;100274.66;;;-1.91;73.81
77086;BME280;66014;53.134;18.006;2022-12-13T04:57:34;100272.21;;;-1.91;73.89
77086;BME280;66014;53.134;18.006;2022-12-13T05:00:02;100273.24;;;-1.86;74.05
77086;BME280;66014;53.134;18.006;2022-12-13T05:02:29;100277.18;;;-1.83;73.90
77086;BME280;66014;53.134;18.006;2022-12-13T05:04:55;100270.57;;;-1.83;73.84
77086;BME280;66014;53.134;18.006;2022-12-13T05:07:22;100270.14;;;-1.84;73.80
77086;BME280;66014;53.134;18.006;2022-12-13T05:09:51;100269.28;;;-1.87;73.78
77086;BME280;66014;53.134;18.006;2022-12-13T05:12:20;100266.60;;;-1.90;73.81
77086;BME280;66014;53.134;18.006;2022-12-13T05:14:46;100267.52;;;-1.93;73.81
77086;BME280;66014;53.134;18.006;2022-12-13T05:17:12;100274.35;;;-1.91;73.96
77086;BME280;66014;53.134;18.006;2022-12-13T05:19:40;100280.05;;;-1.89;73.93
77086;BME280;66014;53.134;18.006;2022-12-13T05:22:08;100280.10;;;-1.85;73.92
77086;BME280;66014;53.134;18.006;2022-12-13T05:24:42;100283.70;;;-1.82;73.88
77086;BME280;66014;53.134;18.006;2022-12-13T05:27:10;100283.08;;;-1.80;73.81
77086;BME280;66014;53.134;18.006;2022-12-13T05:29:37;100278.70;;;-1.82;73.72
77086;BME280;66014;53.134;18.006;2022-12-13T05:32:04;100280.34;;;-1.81;73.60
77086;BME280;66014;53.134;18.006;2022-12-13T05:34:30;100277.85;;;-1.80;73.53
77086;BME280;66014;53.134;18.006;2022-12-13T05:36:57;100274.89;;;-1.82;73.47
77086;BME280;66014;53.134;18.006;2022-12-13T05:39:23;100277.30;;;-1.87;73.39
77086;BME280;66014;53.134;18.006;2022-12-13T05:41:50;100283.05;;;-1.89;73.37
77086;BME280;66014;53.134;18.006;2022-12-13T05:44:16;100283.02;;;-1.93;73.42
77086;BME280;66014;53.134;18.006;2022-12-13T05:46:43;100285.95;;;-1.98;73.46
77086;BME280;66014;53.134;18.006;2022-12-13T05:49:09;100282.54;;;-2.02;73.23
77086;BME280;66014;53.134;18.006;2022-12-13T05:51:35;100287.03;;;-2.04;73.36
77086;BME280;66014;53.134;18.006;2022-12-13T05:54:02;100286.20;;;-2.07;73.36
77086;BME280;66014;53.134;18.006;2022-12-13T05:56:28;100286.29;;;-2.10;73.33
77086;BME280;66014;53.134;18.006;2022-12-13T05:58:55;100289.73;;;-2.15;73.41
77086;BME280;66014;53.134;18.006;2022-12-13T06:01:22;100293.20;;;-2.17;73.55
77086;BME280;66014;53.134;18.006;2022-12-13T06:03:48;100296.05;;;-2.18;73.51
77086;BME280;66014;53.134;18.006;2022-12-13T06:06:15;100293.59;;;-2.18;73.69
77086;BME280;66014;53.134;18.006;2022-12-13T06:08:44;100295.52;;;-2.16;73.68
77086;BME280;66014;53.134;18.006;2022-12-13T06:11:15;100294.61;;;-2.13;73.64
77086;BME280;66014;53.134;18.006;2022-12-13T06:13:42;100299.08;;;-2.12;73.70
77086;BME280;66014;53.134;18.006;2022-12-13T06:16:11;100296.91;;;-2.13;73.67
77086;BME280;66014;53.134;18.006;2022-12-13T06:18:39;100299.93;;;-2.14;73.72
77086;BME280;66014;53.134;18.006;2022-12-13T06:21:06;100305.33;;;-2.14;73.86
77086;BME280;66014;53.134;18.006;2022-12-13T06:23:33;100306.89;;;-2.14;73.91
77086;BME280;66014;53.134;18.006;2022-12-13T06:26:04;100305.42;;;-2.15;73.88
77086;BME280;66014;53.134;18.006;2022-12-13T06:28:32;100306.03;;;-2.14;73.82
77086;BME280;66014;53.134;18.006;2022-12-13T06:30:59;100301.83;;;-2.14;73.75
77086;BME280;66014;53.134;18.006;2022-12-13T06:33:26;100308.30;;;-2.15;73.78
77086;BME280;66014;53.134;18.006;2022-12-13T06:35:57;100307.34;;;-2.15;73.70
77086;BME280;66014;53.134;18.006;2022-12-13T06:38:24;100312.13;;;-2.17;73.78
77086;BME280;66014;53.134;18.006;2022-12-13T06:40:51;100316.50;;;-2.17;73.74
77086;BME280;66014;53.134;18.006;2022-12-13T06:43:20;100316.87;;;-2.15;73.76
77086;BME280;66014;53.134;18.006;2022-12-13T06:45:47;100317.99;;;-2.11;73.63
77086;BME280;66014;53.134;18.006;2022-12-13T06:48:13;100324.81;;;-2.09;73.67
77086;BME280;66014;53.134;18.006;2022-12-13T06:50:40;100325.29;;;-2.09;73.58
77086;BME280;66014;53.134;18.006;2022-12-13T06:53:07;100327.86;;;-2.11;73.52
77086;BME280;66014;53.134;18.006;2022-12-13T06:55:34;100333.58;;;-2.13;73.57
77086;BME280;66014;53.134;18.006;2022-12-13T06:58:00;100335.86;;;-2.13;73.74
77086;BME280;66014;53.134;18.006;2022-12-13T07:00:27;100337.39;;;-2.10;73.62
77086;BME280;66014;53.134;18.006;2022-12-13T07:02:54;100342.70;;;-2.06;73.58
77086;BME280;66014;53.134;18.006;2022-12-13T07:05:21;100345.41;;;-2.03;73.60
77086;BME280;66014;53.134;18.006;2022-12-13T07:07:48;100346.99;;;-2.01;73.44
77086;BME280;66014;53.134;18.006;2022-12-13T07:10:14;100343.46;;;-2.00;73.56
77086;BME280;66014;53.134;18.006;2022-12-13T07:12:41;100345.97;;;-1.99;73.45
77086;BME280;66014;53.134;18.006;2022-12-13T07:15:07;100344.98;;;-2.00;73.43
77086;BME280;66014;53.134;18.006;2022-12-13T07:17:35;100344.95;;;-1.99;73.48
77086;BME280;66014;53.134;18.006;2022-12-13T07:20:05;100344.16;;;-1.95;73.29
77086;BME280;66014;53.134;18.006;2022-12-13T07:22:36;100341.36;;;-1.98;73.62
77086;BME280;66014;53.134;18.006;2022-12-13T07:25:03;100338.40;;;-2.00;73.51
77086;BME280;66014;53.134;18.006;2022-12-13T07:27:30;100347.63;;;-2.05;73.49
77086;BME280;66014;53.134;18.006;2022-12-13T07:29:57;100349.25;;;-2.08;73.91
77086;BME280;66014;53.134;18.006;2022-12-13T07:32:23;100346.05;;;-2.10;73.92
77086;BME280;66014;53.134;18.006;2022-12-13T07:34:50;100350.92;;;-2.08;73.96
77086;BME280;66014;53.134;18.006;2022-12-13T07:37:16;100360.46;;;-2.07;73.97
77086;BME280;66014;53.134;18.006;2022-12-13T07:39:43;100365.56;;;-2.06;73.80
77086;BME280;66014;53.134;18.006;2022-12-13T07:42:09;100369.73;;;-2.03;74.01
77086;BME280;66014;53.134;18.006;2022-12-13T07:44:36;100372.49;;;-2.00;73.95
77086;BME280;66014;53.134;18.006;2022-12-13T07:47:02;100376.39;;;-1.94;73.84
77086;BME280;66014;53.134;18.006;2022-12-13T07:49:29;100376.57;;;-1.87;73.60
77086;BME280;66014;53.134;18.006;2022-12-13T07:51:55;100375.91;;;-1.82;73.33
77086;BME280;66014;53.134;18.006;2022-12-13T07:54:22;100381.11;;;-1.79;73.33
77086;BME280;66014;53.134;18.006;2022-12-13T07:56:49;100379.56;;;-1.77;73.46
77086;BME280;66014;53.134;18.006;2022-12-13T07:59:15;100376.86;;;-1.74;73.43
77086;BME280;66014;53.134;18.006;2022-12-13T08:01:42;100380.41;;;-1.69;73.43
77086;BME280;66014;53.134;18.006;2022-12-13T08:04:08;100384.46;;;-1.65;73.24
77086;BME280;66014;53.134;18.006;2022-12-13T08:06:36;100386.25;;;-1.64;73.02
77086;BME280;66014;53.134;18.006;2022-12-13T08:09:03;100385.89;;;-1.61;72.99
77086;BME280;66014;53.134;18.006;2022-12-13T08:11:30;100387.42;;;-1.53;73.01
77086;BME280;66014;53.134;18.006;2022-12-13T08:13:57;100389.22;;;-1.47;72.69
77086;BME280;66014;53.134;18.006;2022-12-13T08:16:24;100386.09;;;-1.44;72.73
77086;BME280;66014;53.134;18.006;2022-12-13T08:18:50;100386.05;;;-1.41;72.73
77086;BME280;66014;53.134;18.006;2022-12-13T08:21:17;100388.98;;;-1.38;72.70
77086;BME280;66014;53.134;18.006;2022-12-13T08:23:43;100390.80;;;-1.37;72.45
77086;BME280;66014;53.134;18.006;2022-12-13T08:26:10;100389.98;;;-1.38;72.26
77086;BME280;66014;53.134;18.006;2022-12-13T08:28:36;100396.13;;;-1.34;72.16
77086;BME280;66014;53.134;18.006;2022-12-13T08:31:09;100397.60;;;-1.30;72.24
77086;BME280;66014;53.134;18.006;2022-12-13T08:33:39;100396.51;;;-1.25;72.26
77086;BME280;66014;53.134;18.006;2022-12-13T08:36:14;100399.10;;;-1.20;72.20
77086;BME280;66014;53.134;18.006;2022-12-13T08:38:43;100400.53;;;-1.15;71.95
77086;BME280;66014;53.134;18.006;2022-12-13T08:41:10;100402.57;;;-1.12;71.87
77086;BME280;66014;53.134;18.006;2022-12-13T08:43:37;100400.84;;;-1.10;71.75
77086;BME280;66014;53.134;18.006;2022-12-13T08:46:05;100395.77;;;-1.10;71.27
77086;BME280;66014;53.134;18.006;2022-12-13T08:48:31;100403.30;;;-1.08;71.62
77086;BME280;66014;53.134;18.006;2022-12-13T08:51:00;100404.19;;;-1.04;71.63
77086;BME280;66014;53.134;18.006;2022-12-13T08:53:27;100405.92;;;-0.99;71.37
77086;BME280;66014;53.134;18.006;2022-12-13T08:55:58;100409.70;;;-0.96;71.38
77086;BME280;66014;53.134;18.006;2022-12-13T08:58:25;100410.36;;;-0.93;71.25
77086;BME280;66014;53.134;18.006;2022-12-13T09:00:52;100409.19;;;-0.91;71.08
77086;BME280;66014;53.134;18.006;2022-12-13T09:03:18;100408.45;;;-0.91;70.97
77086;BME280;66014;53.134;18.006;2022-12-13T09:05:45;100410.16;;;-0.90;70.98
77086;BME280;66014;53.134;18.006;2022-12-13T09:08:11;100419.38;;;-0.85;70.93
77086;BME280;66014;53.134;18.006;2022-12-13T09:10:38;100416.59;;;-0.78;70.85
77086;BME280;66014;53.134;18.006;2022-12-13T09:13:04;100418.41;;;-0.72;70.63
77086;BME280;66014;53.134;18.006;2022-12-13T09:15:31;100420.10;;;-0.64;70.57
77086;BME280;66014;53.134;18.006;2022-12-13T09:17:58;100420.63;;;-0.55;70.56
77086;BME280;66014;53.134;18.006;2022-12-13T09:20:24;100423.27;;;-0.46;70.33
77086;BME280;66014;53.134;18.006;2022-12-13T09:22:52;100424.55;;;-0.35;70.38
77086;BME280;66014;53.134;18.006;2022-12-13T09:25:20;100427.60;;;-0.25;69.86
77086;BME280;66014;53.134;18.006;2022-12-13T09:27:49;100426.89;;;-0.20;69.61
77086;BME280;66014;53.134;18.006;2022-12-13T09:30:16;100428.04;;;-0.22;69.30
77086;BME280;66014;53.134;18.006;2022-12-13T09:32:43;100424.83;;;-0.21;69.33
77086;BME280;66014;53.134;18.006;2022-12-13T09:35:15;100428.77;;;-0.16;69.37
77086;BME280;66014;53.134;18.006;2022-12-13T09:37:41;100430.08;;;-0.10;68.74
77086;BME280;66014;53.134;18.006;2022-12-13T09:40:12;100432.11;;;-0.09;69.02
77086;BME280;66014;53.134;18.006;2022-12-13T09:42:47;100427.11;;;-0.05;68.75
77086;BME280;66014;53.134;18.006;2022-12-13T09:45:15;100431.95;;;-0.00;68.91
77086;BME280;66014;53.134;18.006;2022-12-13T09:47:44;100434.55;;;0.04;68.44
77086;BME280;66014;53.134;18.006;2022-12-13T09:50:28;100433.90;;;0.06;68.77
77086;BME280;66014;53.134;18.006;2022-12-13T09:52:56;100438.55;;;0.09;68.48
77086;BME280;66014;53.134;18.006;2022-12-13T09:55:30;100441.56;;;0.07;68.13
77086;BME280;66014;53.134;18.006;2022-12-13T09:57:59;100442.40;;;0.02;67.61
77086;BME280;66014;53.134;18.006;2022-12-13T10:00:37;100443.13;;;-0.02;68.21
77086;BME280;66014;53.134;18.006;2022-12-13T10:03:12;100436.92;;;-0.01;68.41
77086;BME280;66014;53.134;18.006;2022-12-13T10:05:44;100440.30;;;-0.02;68.45
77086;BME280;66014;53.134;18.006;2022-12-13T10:08:13;100441.44;;;-0.03;68.32
77086;BME280;66014;53.134;18.006;2022-12-13T10:10:41;100441.21;;;-0.05;68.53
77086;BME280;66014;53.134;18.006;2022-12-13T10:15:37;100439.52;;;-0.21;68.56
77086;BME280;66014;53.134;18.006;2022-12-13T10:18:09;100443.67;;;-0.23;69.05
77086;BME280;66014;53.134;18.006;2022-12-13T10:20:38;100445.02;;;-0.20;68.74
77086;BME280;66014;53.134;18.006;2022-12-13T10:23:06;100446.65;;;-0.19;68.90
77086;BME280;66014;53.134;18.006;2022-12-13T10:25:45;100449.95;;;-0.19;68.80
77086;BME280;66014;53.134;18.006;2022-12-13T10:28:15;100448.52;;;-0.16;69.02
77086;BME280;66014;53.134;18.006;2022-12-13T10:30:42;100451.14;;;-0.14;68.73
77086;BME280;66014;53.134;18.006;2022-12-13T10:33:25;100450.66;;;-0.17;68.54
77086;BME280;66014;53.134;18.006;2022-12-13T10:36:05;100451.80;;;-0.20;68.69
77086;BME280;66014;53.134;18.006;2022-12-13T10:38:41;100456.14;;;-0.22;68.88
77086;BME280;66014;53.134;18.006;2022-12-13T10:44:18;100463.56;;;-0.17;68.93
77086;BME280;66014;53.134;18.006;2022-12-13T10:46:51;100456.20;;;-0.09;68.56
77086;BME280;66014;53.134;18.006;2022-12-13T10:49:22;100456.77;;;-0.03;68.72
77086;BME280;66014;53.134;18.006;2022-12-13T10:51:49;100452.41;;;0.02;68.53
77086;BME280;66014;53.134;18.006;2022-12-13T10:54:32;100453.62;;;0.04;68.45
77086;BME280;66014;53.134;18.006;2022-12-13T10:57:01;100451.63;;;0.05;68.03
77086;BME280;66014;53.134;18.006;2022-12-13T10:59:36;100449.46;;;0.06;67.66
77086;BME280;66014;53.134;18.006;2022-12-13T11:02:27;100450.64;;;0.04;67.72
77086;BME280;66014;53.134;18.006;2022-12-13T11:04:54;100445.27;;;0.08;68.02
77086;BME280;66014;53.134;18.006;2022-12-13T11:09:56;100444.11;;;0.12;67.66
77086;BME280;66014;53.134;18.006;2022-12-13T11:12:25;100446.48;;;0.22;67.96
77086;BME280;66014;53.134;18.006;2022-12-13T11:14:59;100445.55;;;0.34;67.79
77086;BME280;66014;53.134;18.006;2022-12-13T11:17:28;100444.02;;;0.43;67.69
77086;BME280;66014;53.134;18.006;2022-12-13T11:20:02;100441.61;;;0.47;67.38
77086;BME280;66014;53.134;18.006;2022-12-13T11:22:33;100443.52;;;0.49;67.34
77086;BME280;66014;53.134;18.006;2022-12-13T11:25:22;100441.15;;;0.52;67.26
77086;BME280;66014;53.134;18.006;2022-12-13T11:28:23;100448.06;;;0.55;67.29
77086;BME280;66014;53.134;18.006;2022-12-13T11:36:36;100451.81;;;0.52;66.19
77086;BME280;66014;53.134;18.006;2022-12-13T11:41:41;100459.21;;;0.49;66.63
77086;BME280;66014;53.134;18.006;2022-12-13T11:44:19;100458.86;;;0.51;66.62
77086;BME280;66014;53.134;18.006;2022-12-13T11:46:51;100459.25;;;0.57;66.17
77086;BME280;66014;53.134;18.006;2022-12-13T11:49:31;100465.96;;;0.56;65.85
77086;BME280;66014;53.134;18.006;2022-12-13T11:52:04;100468.38;;;0.55;65.64
77086;BME280;66014;53.134;18.006;2022-12-13T11:59:56;100467.65;;;0.50;65.57
77086;BME280;66014;53.134;18.006;2022-12-13T12:02:34;100470.30;;;0.48;65.39
77086;BME280;66014;53.134;18.006;2022-12-13T12:05:05;100472.46;;;0.45;65.54
77086;BME280;66014;53.134;18.006;2022-12-13T12:07:46;100473.77;;;0.43;66.31
77086;BME280;66014;53.134;18.006;2022-12-13T12:10:29;100477.97;;;0.43;65.91
77086;BME280;66014;53.134;18.006;2022-12-13T12:18:44;100489.41;;;0.53;66.11
77086;BME280;66014;53.134;18.006;2022-12-13T12:21:40;100488.98;;;0.57;65.78
77086;BME280;66014;53.134;18.006;2022-12-13T12:35:07;100492.20;;;0.53;65.28
77086;BME280;66014;53.134;18.006;2022-12-13T12:38:23;100492.71;;;0.49;65.36
77086;BME280;66014;53.134;18.006;2022-12-13T12:41:26;100493.35;;;0.43;65.21
77086;BME280;66014;53.134;18.006;2022-12-13T12:47:12;100499.48;;;0.40;65.73
77086;BME280;66014;53.134;18.006;2022-12-13T12:50:02;100499.02;;;0.44;65.57
77086;BME280;66014;53.134;18.006;2022-12-13T12:58:22;100509.88;;;0.33;65.35
77086;BME280;66014;53.134;18.006;2022-12-13T13:03:45;100505.95;;;0.32;65.80
77086;BME280;66014;53.134;18.006;2022-12-13T13:06:19;100508.23;;;0.31;65.73
77086;BME280;66014;53.134;18.006;2022-12-13T13:09:03;100512.27;;;0.29;65.85
77086;BME280;66014;53.134;18.006;2022-12-13T13:11:39;100514.38;;;0.24;65.84
77086;BME280;66014;53.134;18.006;2022-12-13T13:14:29;100514.74;;;0.19;65.63
77086;BME280;66014;53.134;18.006;2022-12-13T13:16:58;100516.45;;;0.08;65.54
77086;BME280;66014;53.134;18.006;2022-12-13T13:21:58;100520.75;;;-0.03;65.99
77086;BME280;66014;53.134;18.006;2022-12-13T13:24:27;100524.35;;;-0.04;65.99
77086;BME280;66014;53.134;18.006;2022-12-13T13:27:28;100525.48;;;-0.07;65.75
77086;BME280;66014;53.134;18.006;2022-12-13T13:32:37;100532.16;;;-0.18;66.21
77086;BME280;66014;53.134;18.006;2022-12-13T13:37:53;100537.81;;;-0.23;66.38
77086;BME280;66014;53.134;18.006;2022-12-13T13:51:49;100538.91;;;-0.47;66.59
77086;BME280;66014;53.134;18.006;2022-12-13T14:00:15;100543.13;;;-0.62;66.91
77086;BME280;66014;53.134;18.006;2022-12-13T14:08:25;100550.84;;;-0.68;66.93
77086;BME280;66014;53.134;18.006;2022-12-13T14:17:23;100561.19;;;-0.83;67.01
77086;BME280;66014;53.134;18.006;2022-12-13T14:20:25;100564.35;;;-0.86;67.26
77086;BME280;66014;53.134;18.006;2022-12-13T14:24:14;100567.14;;;-0.86;67.24
77086;BME280;66014;53.134;18.006;2022-12-13T14:28:54;100574.90;;;-0.78;67.29
77086;BME280;66014;53.134;18.006;2022-12-13T14:31:25;100577.12;;;-0.74;67.26
77086;BME280;66014;53.134;18.006;2022-12-13T14:33:57;100578.64;;;-0.76;67.28
77086;BME280;66014;53.134;18.006;2022-12-13T14:36:27;100580.44;;;-0.77;67.45
77086;BME280;66014;53.134;18.006;2022-12-13T14:39:02;100581.35;;;-0.78;67.43
77086;BME280;66014;53.134;18.006;2022-12-13T14:41:31;100583.10;;;-0.78;67.38
77086;BME280;66014;53.134;18.006;2022-12-13T14:44:14;100579.29;;;-0.81;67.37
77086;BME280;66014;53.134;18.006;2022-12-13T14:47:01;100581.12;;;-0.84;67.46
77086;BME280;66014;53.134;18.006;2022-12-13T14:49:30;100579.36;;;-0.89;67.61
77086;BME280;66014;53.134;18.006;2022-12-13T14:52:03;100584.71;;;-0.90;67.71
77086;BME280;66014;53.134;18.006;2022-12-13T14:54:43;100586.32;;;-0.89;67.81